Country
Station

 

Weather  for  Kristiansand/Kjevik  -  Norway    Norway

  
7 °C (45 °F)
    
 
 

Current METAR for Kristiansand/Kjevik is :

ENCN 161850Z 09003KT 9999 BKN017 07/06 Q1036

 

This is a report for Kristiansand/Kjevik - Norway.
 
The report was made 13 minutes ago, at 18:50 UTC .
The wind was blowing at a speed of 1.5 meters per second (3.5 miles per hour) from east (090°).
 
The temperature was 7 °C (45 °F), with a dew-point at 6 °C (43 °F).
The atmospheric pressure was 1036 hPa (30.59 inHg).
The relative humidity was 93.3%.
 
There were broken clouds at a height of 518 meters (1700 feet).
 
The overall visibility was greater than 10 kilometers (6.2 miles).
 

 
 
 
 

Country :   A   B   C   D   E   F   G   H   I   J   K   L   M   N   O   P   Q   R   S   T   U   V   W   Y   Z

 

Site Info  |  Disclaimer  |  Credits  |  Privacy
Contact us  |  Add to favorites
© 2013-2018 METARs - All rights reserved